Kezdőlap
METAR-TAF:

METAR-TAF

Repülőterek :

Manzini, Szváziföld

földrajzi szélesség: 26-32S, földrajzi hosszúság: 031-18E, magasság: 641 m

Jelenlegi meteorológiai megfigyelések

A jelentés 7 órával és 30 perccel ezelõtt készült, 15:00 UTC
Keleti szél 7 kt
Hőmérséklet 29°C
Páratartalom 62%
Légköri nyomás 1015 hPa
Látótávolság 10 km, vagy több
Kevés felhő 3500 lábon

METAR: FDMS 201500Z 10007KT 9999 FEW035 29/21 Q1015 NOSIG

Idő: 00:30 (22:30 UTC)

Előrejelzés

A jelentés 12 órával és 30 perccel ezelõtt készült, 10:00 UTC
Az előrejelzés 20-én 12 óra UTC és 20-én 21 óra UTC között érvényes
Kelet-északkeleti szél 7 kt
Látótávolság 10 km, vagy több
Szórványos felhőzet 3000 lábon
20-én 13 óra UTC és 20-én 15 óra UTC között fokozatosan kialakuló
Kevés felhő 4000 lábon, Tornyos gomolyfelhő.

TAF: FDMS 201000Z 2012/2021 07007KT 9999 SCT030 BECMG 2013/2015 FEW040TCU

Meteorológiai megfigyelések és előrejelzések több, mint 4000 repülőtéren (METAR és TAF jelentéseket).

A térképen piros és sárga pontok jelzik az elérhető meteorológiai állomásokat.

Mozgassa az egeret a pont fölött, hogy megjelenjen az állomás neve.

Azután kattintson az időjárási megfigyelések és előrejelzések megtekintéséhez.

A térkép megváltoztatása: kattintson a fekete keresztel jelölt zöld gombra ráközelítéshez, a vonallal jelölt zöld gombra távolításhoz, vagy a zöld nyilakra a szomszédos térképek eléréséhez.


METAR-TAF: